Time;durP1;ratioP1;P1;durP2;ratioP2;P2;SDS_P1;SDS_P2;PMS_P1;PMS_P2;Temp;Humidity;BMP_temperature;BMP_pressure;BME280_temperature;BME280_humidity;BME280_pressure;Samples;Min_cycle;Max_cycle;Signal;HPM_P1;HPM_P2
2022/10/07 00:01:11;;;;;;;14.90;5.43;;;9.30;99.90;;;;;;4959801;28;20399;-64
2022/10/07 00:03:37;;;;;;;11.35;4.65;;;9.30;99.90;;;;;;4964040;28;20695;-64
2022/10/07 00:06:10;;;;;;;12.88;4.38;;;9.30;99.90;;;;;;4961129;28;20122;-64
2022/10/07 00:08:36;;;;;;;12.05;3.90;;;9.30;99.90;;;;;;4962806;28;20042;-64
2022/10/07 00:11:08;;;;;;;11.43;4.47;;;9.20;99.90;;;;;;4952131;28;20130;-64
2022/10/07 00:13:35;;;;;;;11.77;4.43;;;9.10;99.90;;;;;;4963843;28;20046;-64
2022/10/07 00:16:06;;;;;;;10.13;3.78;;;9.10;99.90;;;;;;4958651;28;20026;-64
2022/10/07 00:18:33;;;;;;;11.70;4.22;;;9.10;99.90;;;;;;4958358;28;20113;-64
2022/10/07 00:21:14;;;;;;;13.02;4.45;;;9.00;99.90;;;;;;4957177;28;20041;-64
2022/10/07 00:23:41;;;;;;;15.82;5.25;;;9.00;99.90;;;;;;4958810;28;20073;-63
2022/10/07 00:26:09;;;;;;;11.00;4.07;;;9.00;99.90;;;;;;4958711;28;20466;-64
2022/10/07 00:28:35;;;;;;;12.52;4.60;;;9.10;99.90;;;;;;4959145;28;20041;-64
2022/10/07 00:31:03;;;;;;;13.70;4.60;;;9.00;99.90;;;;;;4959315;28;20395;-64
2022/10/07 00:33:33;;;;;;;10.80;3.80;;;9.00;99.90;;;;;;4955812;28;20102;-64
2022/10/07 00:35:59;;;;;;;11.38;4.47;;;9.00;99.90;;;;;;4960659;28;20047;-64
2022/10/07 00:38:25;;;;;;;12.60;4.70;;;9.20;99.90;;;;;;4960353;28;20035;-64
2022/10/07 00:40:51;;;;;;;10.88;4.38;;;9.00;99.90;;;;;;4957430;28;20383;-64
2022/10/07 00:43:30;;;;;;;10.02;4.10;;;8.90;99.90;;;;;;4954635;28;20134;-64
2022/10/07 00:45:59;;;;;;;10.50;4.03;;;8.90;99.90;;;;;;4952965;28;20090;-64
2022/10/07 00:48:29;;;;;;;13.60;3.95;;;8.90;99.90;;;;;;4954228;28;20047;-64
2022/10/07 00:50:58;;;;;;;10.23;4.00;;;8.90;99.90;;;;;;4954963;28;20064;-64
2022/10/07 00:53:26;;;;;;;10.70;4.18;;;8.90;99.90;;;;;;4959695;28;20594;-64
2022/10/07 00:55:56;;;;;;;11.07;4.32;;;8.80;99.90;;;;;;4958329;28;20543;-64
2022/10/07 00:58:22;;;;;;;9.45;3.55;;;8.90;99.90;;;;;;4957243;28;20447;-64
2022/10/07 01:00:49;;;;;;;10.10;4.13;;;8.90;99.90;;;;;;4954425;28;20589;-64
2022/10/07 01:03:15;;;;;;;12.40;4.55;;;8.90;99.90;;;;;;4956117;28;20124;-64
2022/10/07 01:05:40;;;;;;;11.38;4.20;;;8.80;99.90;;;;;;4953289;28;20145;-64
2022/10/07 01:08:06;;;;;;;11.40;4.38;;;8.80;99.90;;;;;;4959016;28;20189;-64
2022/10/07 01:10:54;;;;;;;10.63;4.40;;;8.90;99.90;;;;;;4948919;28;20023;-64
2022/10/07 01:13:41;;;;;;;12.20;4.15;;;8.80;99.90;;;;;;4954515;28;20561;-64
2022/10/07 01:16:22;;;;;;;8.88;3.40;;;8.80;99.90;;;;;;4953269;28;20518;-64
2022/10/07 01:18:57;;;;;;;10.18;3.70;;;8.70;99.90;;;;;;4957122;28;20130;-64
2022/10/07 01:22:01;;;;;;;21.48;4.18;;;8.70;99.90;;;;;;4951469;28;20031;-64
2022/10/07 01:24:40;;;;;;;10.93;3.40;;;8.90;99.90;;;;;;4949869;28;20023;-64
2022/10/07 01:27:13;;;;;;;13.95;3.88;;;8.90;99.90;;;;;;4956408;28;20039;-64
2022/10/07 01:29:54;;;;;;;12.85;3.75;;;8.80;99.90;;;;;;4949764;28;20031;-64
2022/10/07 01:32:45;;;;;;;12.07;3.50;;;8.70;99.90;;;;;;4953560;28;20037;-64
2022/10/07 01:35:15;;;;;;;13.00;4.10;;;8.70;99.90;;;;;;4955747;28;20027;-65
2022/10/07 01:37:55;;;;;;;12.95;4.00;;;8.70;99.90;;;;;;4953543;28;20838;-64
2022/10/07 01:40:29;;;;;;;13.40;3.88;;;8.80;99.90;;;;;;4953365;28;21194;-64
2022/10/07 01:42:55;;;;;;;13.27;3.92;;;8.90;99.90;;;;;;4950755;28;20070;-64
2022/10/07 01:45:26;;;;;;;14.15;3.75;;;8.90;99.90;;;;;;4954760;28;20041;-65
2022/10/07 01:47:52;;;;;;;9.52;3.50;;;8.60;99.90;;;;;;4952702;28;20755;-65
2022/10/07 01:50:21;;;;;;;11.85;3.47;;;8.70;99.90;;;;;;4953826;28;20031;-65
2022/10/07 01:53:11;;;;;;;14.15;3.90;;;8.60;99.90;;;;;;4951371;28;20487;-65
2022/10/07 01:55:45;;;;;;;9.40;3.35;;;8.60;99.90;;;;;;4956025;28;20027;-65
2022/10/07 01:58:23;;;;;;;16.10;3.80;;;8.60;99.90;;;;;;4954838;28;20023;-65
2022/10/07 02:01:19;;;;;;;12.50;3.80;;;8.60;99.90;;;;;;4958023;28;20039;-65
2022/10/07 02:04:10;;;;;;;13.55;3.88;;;8.60;99.90;;;;;;4930164;28;20035;-65
2022/10/07 02:06:54;;;;;;;13.70;3.90;;;8.60;99.90;;;;;;4957787;28;20031;-63
2022/10/07 02:09:39;;;;;;;10.07;3.75;;;8.60;99.90;;;;;;4952737;28;20090;-65
2022/10/07 02:12:20;;;;;;;10.25;4.50;;;8.50;99.90;;;;;;4954142;28;20036;-65
2022/10/07 02:14:59;;;;;;;11.52;3.75;;;8.60;99.90;;;;;;4961514;28;20047;-65
2022/10/07 02:17:30;;;;;;;12.35;3.65;;;8.60;99.90;;;;;;4951800;28;20122;-65
2022/10/07 02:19:56;;;;;;;15.88;4.22;;;8.60;99.90;;;;;;4956705;28;20077;-65
2022/10/07 02:22:24;;;;;;;9.82;3.60;;;8.60;99.90;;;;;;4953103;28;20625;-65
2022/10/07 02:24:53;;;;;;;14.77;3.78;;;8.50;99.90;;;;;;4955222;28;20138;-65
2022/10/07 02:27:24;;;;;;;12.10;3.38;;;8.70;99.90;;;;;;4954661;28;20113;-65
2022/10/07 02:29:52;;;;;;;12.57;3.80;;;8.70;99.90;;;;;;4953461;28;20079;-65
2022/10/07 02:32:21;;;;;;;15.10;4.25;;;8.70;99.90;;;;;;4953828;28;20035;-65
2022/10/07 02:34:52;;;;;;;15.40;4.28;;;8.60;99.90;;;;;;4954526;28;20496;-65
2022/10/07 02:37:25;;;;;;;14.48;5.00;;;8.60;99.90;;;;;;4950754;28;20840;-65
2022/10/07 02:39:52;;;;;;;15.60;5.07;;;8.70;99.90;;;;;;4954332;28;20480;-65
2022/10/07 02:42:25;;;;;;;12.95;5.03;;;8.60;99.90;;;;;;4954623;28;20032;-65
2022/10/07 02:45:12;;;;;;;16.98;5.28;;;8.60;99.90;;;;;;4952027;28;20036;-65
2022/10/07 02:47:51;;;;;;;18.02;5.43;;;8.60;99.90;;;;;;4957883;28;20117;-65
2022/10/07 02:50:24;;;;;;;16.20;5.78;;;8.50;99.90;;;;;;4956163;28;20038;-65
2022/10/07 02:52:53;;;;;;;13.55;5.38;;;8.40;99.90;;;;;;4957183;28;20039;-65
2022/10/07 02:55:23;;;;;;;16.33;6.57;;;8.40;99.90;;;;;;4955736;28;20031;-65
2022/10/07 02:57:52;;;;;;;15.85;6.10;;;8.40;99.90;;;;;;4954200;28;20128;-65
2022/10/07 03:00:18;;;;;;;19.77;6.55;;;8.50;99.90;;;;;;4950085;28;20466;-65
2022/10/07 03:02:51;;;;;;;16.85;7.50;;;8.30;99.90;;;;;;4957208;28;20096;-65
2022/10/07 03:05:19;;;;;;;14.52;6.72;;;8.30;99.90;;;;;;4958875;28;20066;-65
2022/10/07 03:07:55;;;;;;;23.05;8.25;;;8.30;99.90;;;;;;4961821;28;20031;-65
2022/10/07 03:10:21;;;;;;;25.13;8.73;;;8.40;99.90;;;;;;4957707;28;20130;-65
2022/10/07 03:12:46;;;;;;;20.17;8.63;;;8.50;99.90;;;;;;4958631;28;21189;-65
2022/10/07 03:15:12;;;;;;;19.33;8.98;;;8.50;99.90;;;;;;4959655;28;20042;-65
2022/10/07 03:17:39;;;;;;;22.17;10.02;;;8.50;99.90;;;;;;4960750;28;20130;-65
2022/10/07 03:20:06;;;;;;;23.02;9.55;;;8.60;99.90;;;;;;4955967;28;20201;-65
2022/10/07 03:22:32;;;;;;;22.85;9.35;;;8.50;99.90;;;;;;4955821;28;20031;-65
2022/10/07 03:24:57;;;;;;;23.48;9.93;;;8.60;99.90;;;;;;4958724;28;20070;-65
2022/10/07 03:27:23;;;;;;;20.75;9.43;;;8.40;99.90;;;;;;4956810;28;20019;-64
2022/10/07 03:29:49;;;;;;;22.83;10.23;;;8.50;99.90;;;;;;4957581;28;20035;-65
2022/10/07 03:32:14;;;;;;;18.88;9.05;;;8.50;99.90;;;;;;4959994;28;20038;-65
2022/10/07 03:34:40;;;;;;;23.30;9.30;;;8.40;99.90;;;;;;4955446;28;20031;-64
2022/10/07 03:37:06;;;;;;;19.67;9.70;;;8.40;99.90;;;;;;4961315;28;20181;-65
2022/10/07 03:39:32;;;;;;;18.38;8.90;;;8.40;99.90;;;;;;4955411;28;20414;-65
2022/10/07 03:41:57;;;;;;;15.25;8.43;;;8.30;99.90;;;;;;4966522;28;20182;-65
2022/10/07 03:44:23;;;;;;;20.33;7.82;;;8.30;99.90;;;;;;4956478;28;20395;-65
2022/10/07 03:46:50;;;;;;;16.33;8.57;;;8.30;99.90;;;;;;4956420;28;20255;-65
2022/10/07 03:49:16;;;;;;;17.45;7.57;;;8.30;99.90;;;;;;4954696;28;20155;-65
2022/10/07 03:51:42;;;;;;;19.20;8.90;;;8.30;99.90;;;;;;4958362;28;20046;-65
2022/10/07 03:54:07;;;;;;;17.85;8.38;;;8.30;99.90;;;;;;4953687;28;20065;-65
2022/10/07 03:56:33;;;;;;;21.98;8.40;;;8.30;99.90;;;;;;4952393;28;20035;-65
2022/10/07 03:58:59;;;;;;;18.05;8.27;;;8.20;99.90;;;;;;4957528;28;20588;-65
2022/10/07 04:01:25;;;;;;;18.52;7.82;;;8.40;99.90;;;;;;4957129;28;20034;-65
2022/10/07 04:03:50;;;;;;;20.50;7.05;;;8.30;99.90;;;;;;4961650;28;20035;-65
2022/10/07 04:06:16;;;;;;;17.95;7.00;;;8.30;99.90;;;;;;4954789;28;20042;-65
2022/10/07 04:08:43;;;;;;;18.38;7.20;;;8.40;99.90;;;;;;4956684;28;20031;-65
2022/10/07 04:11:09;;;;;;;15.18;7.28;;;8.40;99.90;;;;;;4956193;28;20053;-65
2022/10/07 04:13:35;;;;;;;12.90;6.53;;;8.40;99.90;;;;;;4959656;28;20250;-65
2022/10/07 04:16:11;;;;;;;17.73;6.32;;;8.40;99.90;;;;;;4962628;28;20070;-65
2022/10/07 04:18:38;;;;;;;13.82;6.38;;;8.40;99.90;;;;;;4958991;28;20039;-64
2022/10/07 04:21:03;;;;;;;16.85;6.32;;;8.40;99.90;;;;;;4954256;28;20075;-65
2022/10/07 04:23:29;;;;;;;15.52;6.18;;;8.40;99.90;;;;;;4959810;28;20494;-65
2022/10/07 04:25:54;;;;;;;13.82;5.90;;;8.30;99.90;;;;;;4958916;28;20041;-65
2022/10/07 04:28:23;;;;;;;13.43;5.35;;;8.30;99.90;;;;;;4957898;28;20037;-65
2022/10/07 04:30:50;;;;;;;15.15;5.57;;;8.20;99.90;;;;;;4960182;28;20039;-65
2022/10/07 04:33:17;;;;;;;15.52;5.20;;;8.20;99.90;;;;;;4957982;28;20034;-65
2022/10/07 04:35:43;;;;;;;16.88;5.50;;;8.20;99.90;;;;;;4962972;28;20035;-65
2022/10/07 04:38:11;;;;;;;11.27;4.50;;;8.10;99.90;;;;;;4953340;28;20115;-65
2022/10/07 04:40:42;;;;;;;14.55;4.75;;;8.20;99.90;;;;;;4957987;28;20407;-65
2022/10/07 04:43:18;;;;;;;12.77;4.70;;;8.20;99.90;;;;;;4958505;28;20042;-65
2022/10/07 04:45:45;;;;;;;11.20;4.43;;;8.10;99.90;;;;;;4959068;28;20043;-65
2022/10/07 04:48:11;;;;;;;12.77;4.43;;;8.20;99.90;;;;;;4955681;28;20118;-65
2022/10/07 04:50:39;;;;;;;10.68;4.28;;;8.10;99.90;;;;;;4960587;28;20129;-64
2022/10/07 04:53:06;;;;;;;12.13;4.32;;;8.20;99.90;;;;;;4954623;28;20046;-65
2022/10/07 04:55:46;;;;;;;13.48;4.45;;;8.30;99.90;;;;;;4957141;28;20041;-65
2022/10/07 04:58:12;;;;;;;9.30;4.22;;;8.30;99.90;;;;;;4948762;28;20110;-65
2022/10/07 05:00:47;;;;;;;12.18;4.28;;;8.30;99.90;;;;;;4956796;28;20070;-64
2022/10/07 05:03:14;;;;;;;13.63;4.47;;;8.30;99.90;;;;;;4955237;28;20065;-65
2022/10/07 05:05:46;;;;;;;13.02;4.68;;;8.30;99.90;;;;;;4953712;28;20070;-64
2022/10/07 05:08:13;;;;;;;13.23;4.70;;;8.20;99.90;;;;;;4958783;28;20048;-65
2022/10/07 05:10:39;;;;;;;10.20;4.18;;;8.20;99.90;;;;;;4957043;28;20057;-64
2022/10/07 05:13:11;;;;;;;16.60;4.90;;;8.20;99.90;;;;;;4949883;28;20121;-65
2022/10/07 05:15:46;;;;;;;11.73;4.05;;;8.30;99.90;;;;;;4948918;28;20744;-65
2022/10/07 05:18:12;;;;;;;18.52;4.60;;;8.20;99.90;;;;;;4954133;28;20137;-65
2022/10/07 05:20:39;;;;;;;11.05;4.28;;;8.40;99.90;;;;;;4958589;28;20137;-65
2022/10/07 05:23:05;;;;;;;11.60;4.05;;;8.20;99.90;;;;;;4957733;28;20139;-65
2022/10/07 05:25:30;;;;;;;15.95;4.80;;;8.10;99.90;;;;;;4950637;28;20114;-65
2022/10/07 05:27:56;;;;;;;10.60;4.20;;;8.20;99.90;;;;;;4948897;28;20134;-65
2022/10/07 05:30:21;;;;;;;14.93;4.65;;;8.10;99.90;;;;;;4958949;28;20064;-64
2022/10/07 05:32:48;;;;;;;10.00;4.22;;;8.10;99.90;;;;;;4952858;28;20651;-65
2022/10/07 05:35:14;;;;;;;10.48;3.92;;;8.20;99.90;;;;;;4957667;28;20027;-64
2022/10/07 05:37:40;;;;;;;10.98;3.45;;;8.10;99.90;;;;;;4955991;28;20376;-64
2022/10/07 05:40:06;;;;;;;14.95;4.70;;;8.10;99.90;;;;;;4949917;28;20058;-65
2022/10/07 05:42:31;;;;;;;11.93;3.95;;;8.10;99.90;;;;;;4949188;28;20037;-65
2022/10/07 05:44:57;;;;;;;11.65;4.20;;;8.10;99.90;;;;;;4954825;28;20042;-65
2022/10/07 05:47:23;;;;;;;11.23;4.35;;;8.10;99.90;;;;;;4954904;28;20082;-65
2022/10/07 05:49:48;;;;;;;12.10;4.40;;;8.20;99.90;;;;;;4955942;28;20071;-65
2022/10/07 05:52:14;;;;;;;12.65;4.53;;;8.20;99.90;;;;;;4959952;28;20069;-65
2022/10/07 05:54:39;;;;;;;12.93;4.40;;;8.10;99.90;;;;;;4956742;28;20721;-65
2022/10/07 05:57:05;;;;;;;12.30;4.60;;;8.20;99.90;;;;;;4962670;28;20035;-65
2022/10/07 05:59:30;;;;;;;13.80;4.82;;;8.10;99.90;;;;;;4957509;28;20034;-64
2022/10/07 06:01:58;;;;;;;11.88;4.63;;;8.10;99.90;;;;;;4959620;28;20086;-65
2022/10/07 06:04:25;;;;;;;15.68;5.07;;;8.10;99.90;;;;;;4950127;28;20267;-65
2022/10/07 06:06:51;;;;;;;18.13;4.75;;;8.10;99.90;;;;;;4954799;28;20050;-64
2022/10/07 06:14:45;;;;;;;15.32;4.88;;;8.10;99.90;;;;;;4953800;28;20530;-65
2022/10/07 06:17:11;;;;;;;18.20;4.85;;;8.10;99.90;;;;;;4958719;28;20031;-65
2022/10/07 06:19:37;;;;;;;13.63;4.53;;;8.10;99.90;;;;;;4954196;28;20031;-65
2022/10/07 06:22:02;;;;;;;14.85;4.93;;;8.20;99.90;;;;;;4956162;28;20383;-65
2022/10/07 06:24:28;;;;;;;14.13;5.63;;;8.30;99.90;;;;;;4956824;28;20027;-65
2022/10/07 06:26:54;;;;;;;9.82;4.55;;;8.30;99.90;;;;;;4953317;28;20046;-65
2022/10/07 06:29:20;;;;;;;17.02;4.93;;;8.30;99.90;;;;;;4961582;28;20543;-65
2022/10/07 06:31:46;;;;;;;11.13;4.70;;;8.40;99.90;;;;;;4957386;28;20035;-65
2022/10/07 06:34:12;;;;;;;16.95;5.15;;;8.60;99.90;;;;;;4953033;28;20437;-65
2022/10/07 06:36:37;;;;;;;13.90;4.78;;;8.40;99.90;;;;;;4949337;28;20035;-65
2022/10/07 06:39:03;;;;;;;17.90;4.82;;;8.40;99.90;;;;;;4959370;28;20114;-65
2022/10/07 06:41:28;;;;;;;14.73;5.05;;;8.50;99.90;;;;;;4958910;28;20593;-65
2022/10/07 06:43:56;;;;;;;13.77;4.72;;;8.60;99.90;;;;;;4953743;28;20702;-64
2022/10/07 06:46:21;;;;;;;17.95;5.40;;;8.70;99.90;;;;;;4952011;28;20050;-65
2022/10/07 06:48:47;;;;;;;16.92;5.22;;;8.80;99.90;;;;;;4960489;28;20043;-65
2022/10/07 06:51:15;;;;;;;19.50;5.32;;;8.90;99.90;;;;;;4953035;28;20023;-65
2022/10/07 06:53:41;;;;;;;17.85;5.90;;;8.90;99.90;;;;;;4958171;28;20452;-65
2022/10/07 06:56:07;;;;;;;16.67;4.95;;;9.00;99.90;;;;;;4954987;28;20062;-65
2022/10/07 06:58:34;;;;;;;18.30;5.82;;;9.00;99.90;;;;;;4958179;28;20535;-65
2022/10/07 07:00:59;;;;;;;15.63;5.35;;;9.00;99.90;;;;;;4960171;28;20061;-65
2022/10/07 07:03:26;;;;;;;18.83;5.80;;;9.10;99.90;;;;;;4958573;28;20617;-65
2022/10/07 07:05:53;;;;;;;14.52;5.38;;;9.10;99.90;;;;;;4958973;28;20094;-65
2022/10/07 07:08:19;;;;;;;20.60;6.15;;;9.30;99.90;;;;;;4951871;28;20109;-65
2022/10/07 07:10:45;;;;;;;19.83;5.57;;;9.40;99.90;;;;;;4961404;28;20517;-65
2022/10/07 07:13:11;;;;;;;18.23;5.40;;;9.50;99.90;;;;;;4957017;28;20043;-65
2022/10/07 07:15:40;;;;;;;15.25;5.68;;;9.50;99.90;;;;;;4958345;28;20042;-65
2022/10/07 07:18:08;;;;;;;19.65;6.00;;;9.70;99.90;;;;;;4955767;28;20046;-65
2022/10/07 07:20:38;;;;;;;18.92;6.28;;;9.80;99.90;;;;;;4957919;28;20027;-65
2022/10/07 07:23:06;;;;;;;18.83;5.50;;;9.80;99.90;;;;;;4955890;28;20035;-65
2022/10/07 07:25:34;;;;;;;25.45;7.35;;;9.80;99.90;;;;;;4957523;28;20450;-66
2022/10/07 07:28:00;;;;;;;14.25;5.55;;;9.90;99.90;;;;;;4952371;28;20088;-66
2022/10/07 07:30:30;;;;;;;16.30;6.05;;;9.80;99.90;;;;;;4947458;28;20433;-65
2022/10/07 07:32:56;;;;;;;17.13;5.15;;;9.80;99.90;;;;;;4953795;28;20146;-65
2022/10/07 07:35:23;;;;;;;21.35;5.75;;;9.90;99.90;;;;;;4954062;28;20539;-65
2022/10/07 07:37:49;;;;;;;15.55;5.18;;;10.00;99.90;;;;;;4953461;28;20027;-66
2022/10/07 07:40:16;;;;;;;16.23;5.28;;;10.10;99.90;;;;;;4954074;28;20128;-65
2022/10/07 07:42:43;;;;;;;19.30;5.40;;;10.20;99.90;;;;;;4957213;28;20035;-65
2022/10/07 07:45:09;;;;;;;16.92;5.00;;;10.20;99.90;;;;;;4950360;28;20039;-65
2022/10/07 07:47:35;;;;;;;14.15;5.28;;;10.30;99.90;;;;;;4962271;28;20054;-65
2022/10/07 07:50:02;;;;;;;19.88;5.25;;;10.40;99.90;;;;;;4960179;28;20031;-65
2022/10/07 07:52:27;;;;;;;13.80;4.65;;;10.50;99.90;;;;;;4958795;28;20023;-65
2022/10/07 07:54:57;;;;;;;12.75;4.28;;;10.60;99.90;;;;;;4958446;28;20105;-65
2022/10/07 07:57:25;;;;;;;17.98;7.85;;;10.60;99.90;;;;;;4952988;28;20050;-65
2022/10/07 07:59:50;;;;;;;13.63;4.88;;;10.70;99.90;;;;;;4953228;28;20042;-66
2022/10/07 08:02:16;;;;;;;11.75;4.47;;;10.90;99.90;;;;;;4963792;28;20042;-66
2022/10/07 08:04:42;;;;;;;13.43;3.78;;;11.00;99.90;;;;;;4963288;28;20038;-66
2022/10/07 08:07:09;;;;;;;16.58;4.53;;;11.10;99.90;;;;;;4955382;28;20467;-66
2022/10/07 08:09:35;;;;;;;15.88;4.15;;;11.20;99.90;;;;;;4955638;28;20519;-66
2022/10/07 08:12:01;;;;;;;16.95;4.65;;;11.30;99.90;;;;;;4958963;28;20121;-65
2022/10/07 08:14:26;;;;;;;16.45;4.13;;;11.40;99.90;;;;;;4960125;28;20128;-66
2022/10/07 08:16:54;;;;;;;13.02;3.90;;;11.50;99.90;;;;;;4955162;28;20133;-66
2022/10/07 08:19:19;;;;;;;13.90;4.25;;;11.60;99.90;;;;;;4957152;28;20497;-65
2022/10/07 08:21:45;;;;;;;16.30;3.75;;;11.70;99.90;;;;;;4956540;28;20325;-66
2022/10/07 08:24:11;;;;;;;10.20;3.90;;;11.80;99.90;;;;;;4956550;28;20870;-66
2022/10/07 08:26:37;;;;;;;10.65;3.90;;;11.80;99.90;;;;;;4957727;28;20122;-65
2022/10/07 08:29:03;;;;;;;13.23;3.78;;;11.90;99.90;;;;;;4954539;28;20515;-65
2022/10/07 08:31:30;;;;;;;16.17;4.18;;;12.00;99.90;;;;;;4955318;28;20043;-66
2022/10/07 08:33:58;;;;;;;14.20;4.03;;;12.10;99.90;;;;;;4960203;28;20125;-65
2022/10/07 08:36:25;;;;;;;14.48;4.07;;;12.20;99.90;;;;;;4955609;28;20047;-65
2022/10/07 08:38:51;;;;;;;15.70;4.57;;;12.30;99.90;;;;;;4959247;28;20626;-65
2022/10/07 08:41:22;;;;;;;15.88;3.80;;;12.40;99.90;;;;;;4955435;28;20035;-65
2022/10/07 08:43:49;;;;;;;13.43;3.88;;;12.50;99.90;;;;;;4955876;28;20050;-66
2022/10/07 08:46:24;;;;;;;15.73;4.63;;;12.70;99.90;;;;;;4954759;28;20039;-66
2022/10/07 08:48:58;;;;;;;12.02;3.90;;;12.70;99.90;;;;;;4960312;28;20061;-65
2022/10/07 08:51:30;;;;;;;14.38;3.75;;;12.70;99.90;;;;;;4955469;28;20482;-65
2022/10/07 08:54:00;;;;;;;17.27;4.30;;;12.80;99.90;;;;;;4961045;28;20129;-66
2022/10/07 08:56:28;;;;;;;72.03;42.72;;;12.90;99.90;;;;;;4959361;28;20062;-65
2022/10/07 08:59:00;;;;;;;50.83;38.55;;;13.00;99.90;;;;;;4961009;28;20050;-55
2022/10/07 09:01:26;;;;;;;81.60;50.55;;;13.00;99.90;;;;;;4958068;28;20110;-51
2022/10/07 09:04:14;;;;;;;29.25;7.25;;;13.10;99.90;;;;;;4958245;28;20138;-65
2022/10/07 09:06:49;;;;;;;16.58;4.57;;;13.10;99.90;;;;;;4974856;28;20038;-66
2022/10/07 09:09:39;;;;;;;15.88;4.95;;;13.30;99.90;;;;;;4953980;28;20050;-65
2022/10/07 09:12:14;;;;;;;12.75;3.35;;;13.30;99.90;;;;;;4951529;28;20073;-65
2022/10/07 09:14:45;;;;;;;23.35;7.95;;;13.40;99.90;;;;;;4958453;28;20388;-65
2022/10/07 09:17:21;;;;;;;16.05;4.05;;;13.40;99.90;;;;;;4954057;28;20087;-65
2022/10/07 09:19:56;;;;;;;13.77;3.67;;;13.50;99.90;;;;;;4953998;28;20375;-65
2022/10/07 09:22:30;;;;;;;17.70;4.00;;;13.70;99.90;;;;;;4958853;28;20085;-65
2022/10/07 09:25:26;;;;;;;19.17;5.40;;;13.70;99.90;;;;;;4956464;28;20035;-66
2022/10/07 09:27:53;;;;;;;17.15;4.20;;;13.70;99.90;;;;;;4957348;28;20159;-66
2022/10/07 09:30:21;;;;;;;16.65;3.70;;;13.80;99.90;;;;;;4955890;28;20038;-65
2022/10/07 09:32:49;;;;;;;30.50;5.30;;;13.80;99.90;;;;;;4952639;28;20070;-64
2022/10/07 09:35:18;;;;;;;14.27;3.38;;;14.20;99.90;;;;;;4960012;28;20034;-66
2022/10/07 09:38:08;;;;;;;18.92;4.03;;;14.10;99.90;;;;;;4959683;28;20031;-66
2022/10/07 09:41:14;;;;;;;12.00;3.15;;;14.20;99.90;;;;;;4958041;28;20491;-65
2022/10/07 09:43:28;;;;;;;18.85;4.03;;;14.20;99.90;;;;;;4960673;28;20031;-66
2022/10/07 09:45:55;;;;;;;11.93;3.17;;;14.40;99.90;;;;;;4962102;28;20042;-65
2022/10/07 09:48:26;;;;;;;13.35;3.83;;;14.20;99.90;;;;;;4952099;28;22788;-65
2022/10/07 09:51:11;;;;;;;17.15;3.60;;;14.30;99.90;;;;;;4961702;28;20047;-65
2022/10/07 09:53:56;;;;;;;11.13;2.97;;;14.50;99.90;;;;;;4955854;28;20436;-66
2022/10/07 09:56:40;;;;;;;14.07;3.38;;;14.70;99.90;;;;;;4954986;28;20042;-65
2022/10/07 09:59:32;;;;;;;18.23;3.60;;;14.70;99.90;;;;;;4954815;28;20544;-66
2022/10/07 10:02:03;;;;;;;14.48;3.45;;;14.90;99.90;;;;;;4953118;28;20031;-65
2022/10/07 10:04:35;;;;;;;14.85;3.35;;;15.00;99.90;;;;;;4963084;28;20035;-65
2022/10/07 10:07:29;;;;;;;11.02;3.13;;;14.90;99.90;;;;;;4962496;28;20054;-65
2022/10/07 10:10:14;;;;;;;12.25;3.15;;;15.00;99.90;;;;;;4956056;28;20394;-65
2022/10/07 10:12:51;;;;;;;13.07;2.90;;;15.10;99.90;;;;;;4955415;28;20043;-65
2022/10/07 10:15:35;;;;;;;16.10;3.30;;;15.30;99.90;;;;;;4957109;28;20039;-65
2022/10/07 10:18:07;;;;;;;13.60;2.65;;;15.20;99.90;;;;;;4959148;28;20475;-65
2022/10/07 10:20:35;;;;;;;15.60;2.85;;;15.30;99.90;;;;;;4966745;28;20038;-66
2022/10/07 10:23:21;;;;;;;16.27;3.25;;;15.30;99.90;;;;;;4962629;28;20038;-66
2022/10/07 10:26:26;;;;;;;12.77;2.35;;;15.30;99.90;;;;;;4959878;28;20608;-67
2022/10/07 10:29:34;;;;;;;19.45;3.13;;;15.20;99.90;;;;;;4959886;28;20471;-67
2022/10/07 10:32:00;;;;;;;13.57;2.45;;;15.20;99.90;;;;;;4960301;28;20148;-66
2022/10/07 10:34:54;;;;;;;18.08;3.00;;;15.20;99.90;;;;;;4958356;28;20114;-66
2022/10/07 10:37:40;;;;;;;14.52;2.22;;;15.30;99.90;;;;;;4959428;28;20676;-67
2022/10/07 10:40:27;;;;;;;13.80;2.40;;;15.40;99.90;;;;;;4953440;28;20539;-67
2022/10/07 10:43:09;;;;;;;10.57;2.47;;;15.70;99.90;;;;;;4962434;28;20094;-67
2022/10/07 10:46:04;;;;;;;15.07;2.47;;;15.70;99.90;;;;;;4954409;28;20039;-67
2022/10/07 10:49:00;;;;;;;11.75;2.15;;;15.70;99.90;;;;;;4950470;28;20039;-67
2022/10/07 10:51:50;;;;;;;17.33;2.85;;;15.60;99.90;;;;;;4955280;28;20139;-68
2022/10/07 10:54:42;;;;;;;16.88;2.22;;;15.70;99.90;;;;;;4956837;28;20105;-68
2022/10/07 10:57:36;;;;;;;11.18;2.25;;;15.60;99.90;;;;;;4923760;28;20473;-68
2022/10/07 11:00:12;;;;;;;16.27;2.75;;;15.70;99.90;;;;;;4959063;28;20490;-68
2022/10/07 11:02:38;;;;;;;13.73;2.20;;;15.70;99.90;;;;;;4953787;28;20084;-69
2022/10/07 11:05:19;;;;;;;14.38;2.67;;;15.90;99.90;;;;;;4955649;28;20053;-67
2022/10/07 11:08:00;;;;;;;16.48;2.53;;;15.80;99.90;;;;;;4955946;28;20657;-69
2022/10/07 11:10:54;;;;;;;14.52;2.50;;;15.90;99.90;;;;;;4959124;28;20046;-67
2022/10/07 11:13:29;;;;;;;10.20;2.53;;;15.90;99.90;;;;;;4956863;28;20114;-69
2022/10/07 11:16:03;;;;;;;12.75;2.80;;;16.00;99.90;;;;;;4954119;28;20042;-69
2022/10/07 11:18:44;;;;;;;14.90;2.97;;;16.10;99.90;;;;;;4956947;28;20101;-69
2022/10/07 11:21:23;;;;;;;13.70;2.92;;;16.00;99.90;;;;;;4955391;28;20530;-67
2022/10/07 11:23:52;;;;;;;17.33;3.30;;;16.00;99.90;;;;;;4959205;28;20547;-68
2022/10/07 11:26:33;;;;;;;11.13;2.13;;;15.90;99.90;;;;;;4959494;28;20751;-68
2022/10/07 11:29:09;;;;;;;15.90;3.05;;;15.90;99.90;;;;;;4953651;28;20320;-68
2022/10/07 11:31:43;;;;;;;11.32;2.00;;;16.00;99.90;;;;;;4959901;28;20058;-68
2022/10/07 11:34:17;;;;;;;11.90;2.42;;;16.10;99.90;;;;;;4956390;28;20503;-68
2022/10/07 11:37:04;;;;;;;10.90;2.13;;;16.10;99.90;;;;;;4960720;28;20440;-68
2022/10/07 11:39:30;;;;;;;15.02;2.70;;;16.20;99.90;;;;;;4958498;28;20081;-69
2022/10/07 11:42:16;;;;;;;13.43;2.83;;;16.10;99.90;;;;;;4955056;28;20066;-66
2022/10/07 11:45:02;;;;;;;18.08;2.55;;;16.10;99.90;;;;;;4952569;28;20047;-66
2022/10/07 11:47:50;;;;;;;20.88;2.80;;;16.10;99.90;;;;;;4962597;28;20101;-65
2022/10/07 11:50:21;;;;;;;10.73;2.30;;;16.10;99.90;;;;;;4957286;28;20516;-66
2022/10/07 11:52:50;;;;;;;11.68;2.38;;;16.20;99.90;;;;;;4956266;28;20054;-65
2022/10/07 11:55:31;;;;;;;12.57;2.15;;;16.10;99.90;;;;;;4946661;28;20031;-66
2022/10/07 11:57:59;;;;;;;12.30;2.13;;;16.20;99.90;;;;;;4955671;28;20054;-67
2022/10/07 12:00:31;;;;;;;13.50;2.25;;;16.20;99.90;;;;;;4950225;28;20114;-66
2022/10/07 12:03:12;;;;;;;12.52;2.70;;;16.20;99.90;;;;;;4954883;28;20028;-66
2022/10/07 12:05:37;;;;;;;11.63;2.65;;;16.30;99.90;;;;;;4953136;28;20318;-66
2022/10/07 12:08:17;;;;;;;12.13;1.95;;;16.40;99.90;;;;;;4958614;28;20092;-66
2022/10/07 12:10:43;;;;;;;10.43;2.10;;;16.40;99.90;;;;;;4959880;28;20035;-65
2022/10/07 12:13:12;;;;;;;12.27;1.98;;;16.40;99.90;;;;;;4953788;28;20051;-65
2022/10/07 12:15:41;;;;;;;12.25;2.45;;;16.40;99.90;;;;;;4953934;28;20031;-66
2022/10/07 12:18:06;;;;;;;11.88;2.63;;;16.40;99.90;;;;;;4962626;28;20046;-66
2022/10/07 12:20:44;;;;;;;11.43;2.30;;;16.40;99.90;;;;;;4961327;28;20097;-66
2022/10/07 12:23:15;;;;;;;13.38;2.92;;;16.40;99.90;;;;;;4956919;28;20035;-65
2022/10/07 12:25:45;;;;;;;11.13;2.40;;;16.50;99.90;;;;;;4957287;28;20601;-65
2022/10/07 12:28:33;;;;;;;12.70;2.58;;;16.50;99.90;;;;;;4952387;28;20062;-65
2022/10/07 12:31:21;;;;;;;15.73;2.58;;;16.50;99.90;;;;;;4959420;28;20031;-66
2022/10/07 12:34:08;;;;;;;14.98;2.58;;;16.50;99.90;;;;;;4952623;28;20043;-68
2022/10/07 12:36:34;;;;;;;12.23;2.53;;;16.50;99.90;;;;;;4954268;28;20039;-67
2022/10/07 12:39:00;;;;;;;15.85;2.80;;;16.50;99.90;;;;;;4954490;28;20062;-67
2022/10/07 12:41:35;;;;;;;12.57;2.28;;;16.60;99.90;;;;;;4954152;28;20178;-67
2022/10/07 12:44:18;;;;;;;13.00;2.50;;;16.90;99.90;;;;;;4960474;28;20126;-66
2022/10/07 12:47:00;;;;;;;12.15;2.50;;;16.80;99.90;;;;;;4957067;28;20136;-67
2022/10/07 12:49:35;;;;;;;13.75;2.38;;;16.80;99.90;;;;;;4957022;28;22293;-67
2022/10/07 12:52:25;;;;;;;12.50;2.67;;;16.80;99.90;;;;;;4966685;28;20430;-67
2022/10/07 12:54:55;;;;;;;9.80;2.33;;;16.80;99.90;;;;;;4957249;28;20065;-67
2022/10/07 12:57:33;;;;;;;16.20;2.80;;;16.90;99.90;;;;;;4958266;28;20045;-67
2022/10/07 13:00:16;;;;;;;9.80;2.55;;;16.80;99.90;;;;;;4950359;28;20525;-67
2022/10/07 13:03:26;;;;;;;13.27;2.55;;;16.80;99.90;;;;;;4948594;28;20035;-67
2022/10/07 13:06:34;;;;;;;11.73;2.50;;;16.70;99.90;;;;;;4961922;28;20522;-66
2022/10/07 13:09:33;;;;;;;14.50;2.55;;;16.70;99.90;;;;;;4951891;28;20534;-66
2022/10/07 13:12:15;;;;;;;13.35;2.83;;;16.70;99.90;;;;;;4958618;28;20459;-66
2022/10/07 13:15:07;;;;;;;15.20;2.53;;;16.80;99.90;;;;;;4954012;28;20045;-68